Terminal Aerodrome Forecast
Issued by NWS Springfield, MO

Home | Current Version | Previous Version | Text Only | Print | Product List | Glossary On
Versions: 1 2 3 4 5 6 7 8 9 10 11 12 13 14 15 16 17 18 19 20 21 22 23 24 25
000
FTUS43 KSGF 211724
TAFSGF
TAF
KSGF 211724Z 2118/2218 22009KT P6SM SCT020 SCT030
     FM212100 28005KT P6SM SCT050
     FM220300 VRB03KT P6SM FEW250
     FM221100 00000KT 1SM BR FEW045
     FM221400 VRB03KT P6SM FEW250=

USA.gov is the U.S. government's official web portal to all federal, state and local government web resources and services.